createdAt,value
2014-09-28T00:00:14.954Z,102236
2014-09-28T00:00:33.142Z,102239
2014-09-28T00:00:51.329Z,102233
2014-09-28T00:01:08.907Z,102245
2014-09-28T00:01:27.111Z,102251
2014-09-28T00:01:45.299Z,102236
2014-09-28T00:02:03.486Z,102239
2014-09-28T00:02:21.693Z,102242
2014-09-28T00:02:39.896Z,102231
2014-09-28T00:02:57.474Z,102242
2014-09-28T00:03:15.036Z,102239
2014-09-28T00:03:33.241Z,102233
2014-09-28T00:03:51.429Z,102242
2014-09-28T00:04:09.757Z,102239
2014-09-28T00:04:27.337Z,102236
2014-09-28T00:04:44.400Z,102251
2014-09-28T00:05:01.478Z,102239
2014-09-28T00:05:18.415Z,102245
2014-09-28T00:05:35.980Z,102236
2014-09-28T00:05:54.183Z,102251
2014-09-28T00:06:12.386Z,102251
2014-09-28T00:06:30.089Z,102251
2014-09-28T00:06:47.654Z,102245
2014-09-28T00:07:05.232Z,102248
2014-09-28T00:07:21.544Z,102248
2014-09-28T00:07:39.249Z,102251
2014-09-28T00:07:57.578Z,102251
2014-09-28T00:08:15.781Z,102248
2014-09-28T00:08:33.343Z,102248
2014-09-28T00:08:50.908Z,102242
2014-09-28T00:09:08.470Z,102245
2014-09-28T00:09:26.673Z,102248
2014-09-28T00:09:44.363Z,102251
2014-09-28T00:10:02.066Z,102245
2014-09-28T00:10:19.003Z,102262
2014-09-28T00:10:36.582Z,102251
2014-09-28T00:10:54.271Z,102248
2014-09-28T00:11:11.224Z,102245
2014-09-28T00:11:28.162Z,102251
2014-09-28T00:11:46.349Z,102251
2014-09-28T00:12:03.429Z,102245
2014-09-28T00:12:21.617Z,102251
2014-09-28T00:12:39.195Z,102245
2014-09-28T00:12:57.382Z,102251
2014-09-28T00:13:14.963Z,102242
2014-09-28T00:13:32.666Z,102245
2014-09-28T00:13:50.228Z,102251
2014-09-28T00:14:08.449Z,102242
2014-09-28T00:14:25.386Z,102251
2014-09-28T00:14:42.465Z,102239
2014-09-28T00:14:59.402Z,102239
2014-09-28T00:15:17.718Z,102248
2014-09-28T00:15:35.436Z,102251
2014-09-28T00:15:52.999Z,102254
2014-09-28T00:16:11.327Z,102251
2014-09-28T00:16:27.640Z,102236
2014-09-28T00:16:45.828Z,102254
2014-09-28T00:17:02.781Z,102251
2014-09-28T00:17:19.847Z,102242
2014-09-28T00:17:37.425Z,102248
2014-09-28T00:17:54.503Z,102236
2014-09-28T00:18:12.190Z,102245
2014-09-28T00:18:29.770Z,102248
2014-09-28T00:18:48.099Z,102248
2014-09-28T00:19:05.677Z,102248
2014-09-28T00:19:22.739Z,102245
2014-09-28T00:19:40.303Z,102245
2014-09-28T00:19:57.256Z,102256
2014-09-28T00:20:15.584Z,102242
2014-09-28T00:20:33.289Z,102245
2014-09-28T00:20:50.852Z,102248
2014-09-28T00:21:07.789Z,102248
2014-09-28T00:21:25.367Z,102245
2014-09-28T00:21:42.448Z,102245
2014-09-28T00:22:00.011Z,102251
2014-09-28T00:22:16.948Z,102239
2014-09-28T00:22:34.526Z,102245
2014-09-28T00:22:52.092Z,102248
2014-09-28T00:23:10.420Z,102248
2014-09-28T00:23:27.373Z,102251
2014-09-28T00:23:45.701Z,102245
2014-09-28T00:24:03.905Z,102248
2014-09-28T00:24:20.843Z,102254
2014-09-28T00:24:37.780Z,102254
2014-09-28T00:24:56.111Z,102259
2014-09-28T00:25:12.423Z,102251
2014-09-28T00:25:30.001Z,102251
2014-09-28T00:25:48.189Z,102245
2014-09-28T00:26:04.519Z,102254
2014-09-28T00:26:22.847Z,102259
2014-09-28T00:27:11.162Z,102248
2014-09-28T00:27:28.866Z,102245
2014-09-28T00:27:46.428Z,102256
2014-09-28T00:28:02.741Z,102245
2014-09-28T00:28:19.821Z,102242
2014-09-28T00:28:36.899Z,102245
2014-09-28T00:28:54.461Z,102251
2014-09-28T00:29:12.789Z,102251
2014-09-28T00:29:29.729Z,102251
2014-09-28T00:29:48.057Z,102259
2014-09-28T00:30:05.620Z,102248
2014-09-28T00:30:23.963Z,102254
2014-09-28T00:30:41.543Z,102248
2014-09-28T00:30:59.731Z,102242
2014-09-28T00:31:17.309Z,102254
2014-09-28T00:31:34.389Z,102245
2014-09-28T00:31:52.092Z,102254
2014-09-28T00:32:09.795Z,102256
2014-09-28T00:32:27.483Z,102256
2014-09-28T00:32:44.594Z,102245
2014-09-28T00:33:02.797Z,102239
2014-09-28T00:33:20.985Z,102251
2014-09-28T00:33:38.705Z,102245
2014-09-28T00:33:56.892Z,102242
2014-09-28T00:34:14.580Z,102245
2014-09-28T00:34:30.892Z,102245
2014-09-28T00:34:48.473Z,102248
2014-09-28T00:35:06.036Z,102259
2014-09-28T00:35:23.614Z,102245
2014-09-28T00:35:41.942Z,102248
2014-09-28T00:35:58.882Z,102254
2014-09-28T00:36:16.460Z,102245
2014-09-28T00:36:32.897Z,102248
2014-09-28T00:36:50.462Z,102248
2014-09-28T00:37:08.040Z,102248
2014-09-28T00:37:26.243Z,102242
2014-09-28T00:37:43.821Z,102251
2014-09-28T00:38:01.526Z,102248
2014-09-28T00:38:19.229Z,102248
2014-09-28T00:38:37.417Z,102248
2014-09-28T00:38:54.997Z,102245
2014-09-28T00:39:12.559Z,102239
2014-09-28T00:39:30.122Z,102248
2014-09-28T00:39:47.700Z,102230
2014-09-28T00:40:05.889Z,102239
2014-09-28T00:40:24.092Z,102233
2014-09-28T00:40:41.654Z,102245
2014-09-28T00:40:59.360Z,102248
2014-09-28T00:41:16.298Z,102248
2014-09-28T00:41:33.876Z,102239
2014-09-28T00:41:52.204Z,102248
2014-09-28T00:42:09.144Z,102245
2014-09-28T00:42:26.847Z,102254
2014-09-28T00:42:44.409Z,102248
2014-09-28T00:43:02.114Z,102242
2014-09-28T00:43:19.802Z,102236
2014-09-28T00:43:36.911Z,102239
2014-09-28T00:43:55.099Z,102248
2014-09-28T00:44:12.662Z,102239
2014-09-28T00:44:29.600Z,102242
2014-09-28T00:44:47.303Z,102239
2014-09-28T00:45:04.868Z,102239
2014-09-28T00:45:21.181Z,102239
2014-09-28T00:45:39.509Z,102233
2014-09-28T00:45:57.212Z,102242
2014-09-28T00:46:14.152Z,102239
2014-09-28T00:46:31.089Z,102239
2014-09-28T00:46:49.292Z,102236
2014-09-28T00:47:07.480Z,102239
2014-09-28T00:47:25.669Z,102239
2014-09-28T00:47:43.247Z,102239
2014-09-28T00:48:00.325Z,102236
2014-09-28T00:48:18.515Z,102251
2014-09-28T00:48:36.718Z,102245
2014-09-28T00:48:54.921Z,102239
2014-09-28T00:49:13.249Z,102239
2014-09-28T00:49:30.938Z,102239
2014-09-28T00:49:49.141Z,102248
2014-09-28T00:50:07.344Z,102233
2014-09-28T00:50:25.550Z,102233
2014-09-28T00:50:43.738Z,102245
2014-09-28T00:51:01.941Z,102239
2014-09-28T00:51:19.505Z,102233
2014-09-28T00:51:37.068Z,102239
2014-09-28T00:51:55.271Z,102236
2014-09-28T00:52:12.833Z,102239
2014-09-28T00:52:31.039Z,102245
2014-09-28T00:52:48.601Z,102233
2014-09-28T00:53:06.789Z,102236
2014-09-28T00:53:23.744Z,102239
2014-09-28T00:53:40.681Z,102239
2014-09-28T00:53:57.619Z,102242
2014-09-28T00:54:15.197Z,102239
2014-09-28T00:54:33.386Z,102242
2014-09-28T00:54:51.714Z,102242
2014-09-28T00:55:09.418Z,102239
2014-09-28T00:55:26.496Z,102239
2014-09-28T00:55:43.435Z,102239
2014-09-28T00:56:00.373Z,102239
2014-09-28T00:56:18.576Z,102239
2014-09-28T00:56:36.763Z,102239
2014-09-28T00:56:54.968Z,102233
2014-09-28T00:57:13.172Z,102239
2014-09-28T00:57:31.359Z,102239
2014-09-28T00:57:49.706Z,102239
2014-09-28T00:58:07.268Z,102242
2014-09-28T00:58:25.596Z,102242
2014-09-28T00:58:43.800Z,102230
2014-09-28T00:59:01.988Z,102236
2014-09-28T00:59:20.176Z,102242
2014-09-28T00:59:38.379Z,102236
2014-09-28T00:59:56.584Z,102239
2014-09-28T01:00:14.912Z,102239
2014-09-28T01:00:33.099Z,102233
2014-09-28T01:00:50.678Z,102239
2014-09-28T01:01:08.383Z,102228
2014-09-28T01:01:26.570Z,102245
2014-09-28T01:01:44.898Z,102239
2014-09-28T01:02:02.604Z,102239
2014-09-28T01:02:20.933Z,102239
2014-09-28T01:02:38.495Z,102245
2014-09-28T01:02:56.823Z,102233
2014-09-28T01:03:15.012Z,102230
2014-09-28T01:03:33.215Z,102236
2014-09-28T01:03:50.777Z,102230
2014-09-28T01:04:08.968Z,102230
2014-09-28T01:04:27.171Z,102233
2014-09-28T01:04:44.733Z,102233
2014-09-28T01:05:01.671Z,102233
2014-09-28T01:05:19.251Z,102228
2014-09-28T01:05:37.439Z,102236
2014-09-28T01:05:55.142Z,102228
2014-09-28T01:06:12.845Z,102239
2014-09-28T01:06:30.550Z,102239
2014-09-28T01:06:48.737Z,102227
2014-09-28T01:07:06.941Z,102236
2014-09-28T01:07:24.504Z,102233
2014-09-28T01:07:41.442Z,102228
2014-09-28T01:07:58.395Z,102236
2014-09-28T01:08:15.332Z,102228
2014-09-28T01:08:33.663Z,102225
2014-09-28T01:08:51.366Z,102236
2014-09-28T01:09:08.929Z,102233
2014-09-28T01:09:25.866Z,102236
2014-09-28T01:09:42.198Z,102242
2014-09-28T01:09:59.760Z,102230
2014-09-28T01:10:17.963Z,102233
2014-09-28T01:10:35.666Z,102233
2014-09-28T01:10:52.605Z,102239
2014-09-28T01:11:10.792Z,102236
2014-09-28T01:11:28.995Z,102230
2014-09-28T01:11:47.183Z,102228
2014-09-28T01:12:05.372Z,102233
2014-09-28T01:12:23.576Z,102233
2014-09-28T01:12:41.763Z,102230
2014-09-28T01:12:59.968Z,102236
2014-09-28T01:13:18.156Z,102239
2014-09-28T01:13:36.359Z,102233
2014-09-28T01:13:53.921Z,102230
2014-09-28T01:14:11.486Z,102233
2014-09-28T01:14:29.673Z,102239
2014-09-28T01:14:46.626Z,102242
2014-09-28T01:15:03.567Z,102236
2014-09-28T01:15:21.129Z,102239
2014-09-28T01:15:38.692Z,102233
2014-09-28T01:15:56.895Z,102236
2014-09-28T01:16:15.084Z,102236
2014-09-28T01:16:33.287Z,102236
2014-09-28T01:16:50.849Z,102236
2014-09-28T01:17:09.070Z,102230
2014-09-28T01:17:26.632Z,102230
2014-09-28T01:17:44.820Z,102239
2014-09-28T01:18:03.023Z,102242
2014-09-28T01:18:21.213Z,102236
2014-09-28T01:18:39.416Z,102233
2014-09-28T01:18:57.619Z,102236
2014-09-28T01:19:15.825Z,102233
2014-09-28T01:19:32.887Z,102233
2014-09-28T01:19:50.466Z,102251
2014-09-28T01:20:08.169Z,102239
2014-09-28T01:20:25.873Z,102239
2014-09-28T01:20:43.435Z,102239
2014-09-28T01:21:00.373Z,102236
2014-09-28T01:21:18.717Z,102233
2014-09-28T01:21:36.907Z,102236
2014-09-28T01:21:54.610Z,102228
2014-09-28T01:22:12.173Z,102233
2014-09-28T01:22:30.378Z,102233
2014-09-28T01:22:46.690Z,102236
2014-09-28T01:23:04.253Z,102236
2014-09-28T01:23:22.581Z,102233
2014-09-28T01:23:40.911Z,102239
2014-09-28T01:23:58.614Z,102239
2014-09-28T01:24:16.817Z,102233
2014-09-28T01:24:35.007Z,102236
2014-09-28T01:24:53.210Z,102239
2014-09-28T01:25:11.397Z,102242
2014-09-28T01:25:29.726Z,102239
2014-09-28T01:25:48.056Z,102236
2014-09-28T01:26:06.399Z,102242
2014-09-28T01:26:23.337Z,102239
2014-09-28T01:26:39.651Z,102236
2014-09-28T01:26:56.605Z,102239
2014-09-28T01:27:13.683Z,102248
2014-09-28T01:27:30.620Z,102236
2014-09-28T01:27:48.810Z,102239
2014-09-28T01:28:07.013Z,102239
2014-09-28T01:28:25.200Z,102236
2014-09-28T01:28:43.403Z,102242
2014-09-28T01:29:01.109Z,102239
2014-09-28T01:29:18.046Z,102236
2014-09-28T01:29:35.624Z,102236
2014-09-28T01:29:53.814Z,102236
2014-09-28T01:30:11.392Z,102236
2014-09-28T01:30:29.579Z,102242
2014-09-28T01:30:47.782Z,102239
2014-09-28T01:31:05.972Z,102233
2014-09-28T01:31:24.159Z,102233
2014-09-28T01:31:42.363Z,102236
2014-09-28T01:32:00.551Z,102239
2014-09-28T01:32:18.879Z,102236
2014-09-28T01:32:37.082Z,102236
2014-09-28T01:32:55.270Z,102230
2014-09-28T01:33:13.476Z,102236
2014-09-28T01:33:31.663Z,102233
2014-09-28T01:33:49.867Z,102236
2014-09-28T01:34:08.056Z,102245
2014-09-28T01:34:25.759Z,102239
2014-09-28T01:34:43.462Z,102236
2014-09-28T01:35:01.650Z,102239
2014-09-28T01:35:19.855Z,102245
2014-09-28T01:35:38.042Z,102245
2014-09-28T01:35:56.246Z,102248
2014-09-28T01:36:14.435Z,102239
2014-09-28T01:36:32.623Z,102239
2014-09-28T01:36:50.826Z,102248
2014-09-28T01:37:09.029Z,102239
2014-09-28T01:37:27.218Z,102239
2014-09-28T01:37:44.921Z,102236
2014-09-28T01:38:02.000Z,102230
2014-09-28T01:38:18.939Z,102248
2014-09-28T01:38:37.142Z,102239
2014-09-28T01:38:55.330Z,102236
2014-09-28T01:39:13.533Z,102227
2014-09-28T01:39:31.863Z,102245
2014-09-28T01:39:48.175Z,102248
2014-09-28T01:40:05.754Z,102233
2014-09-28T01:40:24.084Z,102233
2014-09-28T01:40:41.787Z,102230
2014-09-28T01:40:59.474Z,102225
2014-09-28T01:41:16.552Z,102239
2014-09-28T01:41:34.117Z,102230
2014-09-28T01:41:50.429Z,102230
2014-09-28T01:42:08.133Z,102236
2014-09-28T01:42:25.213Z,102233
2014-09-28T01:42:43.416Z,102230
2014-09-28T01:43:01.744Z,102225
2014-09-28T01:43:19.306Z,102239
2014-09-28T01:43:37.012Z,102233
2014-09-28T01:43:54.574Z,102236
2014-09-28T01:44:11.652Z,102233
2014-09-28T01:44:28.607Z,102230
2014-09-28T01:44:44.920Z,102239
2014-09-28T01:45:03.248Z,102233
2014-09-28T01:45:21.576Z,102242
2014-09-28T01:45:38.656Z,102230
2014-09-28T01:45:55.594Z,102236
2014-09-28T01:46:11.906Z,102239
2014-09-28T01:46:28.859Z,102233
2014-09-28T01:46:45.924Z,102233
2014-09-28T01:47:02.861Z,102233
2014-09-28T01:47:20.424Z,102230
2014-09-28T01:47:38.629Z,102230
2014-09-28T01:47:54.941Z,102230
2014-09-28T01:48:12.504Z,102236
2014-09-28T01:48:29.457Z,102236
2014-09-28T01:48:45.772Z,102227
2014-09-28T01:49:02.850Z,102233
2014-09-28T01:49:21.037Z,102233
2014-09-28T01:49:39.227Z,102233
2014-09-28T01:49:57.430Z,102236
2014-09-28T01:50:15.617Z,102225
2014-09-28T01:50:33.820Z,102227
2014-09-28T01:50:52.009Z,102224
2014-09-28T01:51:10.212Z,102227
2014-09-28T01:51:28.400Z,102233
2014-09-28T01:51:46.605Z,102227
2014-09-28T01:52:04.792Z,102227
2014-09-28T01:52:22.370Z,102219
2014-09-28T01:52:40.558Z,102224
2014-09-28T01:52:58.764Z,102224
2014-09-28T01:53:16.951Z,102219
2014-09-28T01:53:35.155Z,102227
2014-09-28T01:53:53.343Z,102224
2014-09-28T01:54:11.546Z,102222
2014-09-28T01:54:29.734Z,102224
2014-09-28T01:54:47.937Z,102227
2014-09-28T01:55:06.127Z,102222
2014-09-28T01:55:24.330Z,102222
2014-09-28T01:55:41.893Z,102233
2014-09-28T01:55:59.472Z,102230
2014-09-28T01:56:17.035Z,102222
2014-09-28T01:56:35.238Z,102219
2014-09-28T01:56:53.425Z,102227
2014-09-28T01:57:11.631Z,102230
2014-09-28T01:57:29.819Z,102222
2014-09-28T01:57:48.022Z,102227
2014-09-28T01:58:06.211Z,102222
2014-09-28T01:58:23.915Z,102227
2014-09-28T01:58:42.118Z,102224
2014-09-28T01:59:00.305Z,102222
2014-09-28T01:59:18.510Z,102239
2014-09-28T01:59:36.713Z,102230
2014-09-28T01:59:54.901Z,102230
2014-09-28T02:00:13.090Z,102233
2014-09-28T02:00:31.294Z,102230
2014-09-28T02:00:49.481Z,102227
2014-09-28T02:01:07.684Z,102227
2014-09-28T02:01:25.874Z,102222
2014-09-28T02:01:44.217Z,102224
2014-09-28T02:02:01.780Z,102233
2014-09-28T02:02:19.969Z,102227
2014-09-28T02:02:37.532Z,102227
2014-09-28T02:02:55.110Z,102221
2014-09-28T02:03:13.298Z,102227
2014-09-28T02:03:31.503Z,102227
2014-09-28T02:03:49.690Z,102227
2014-09-28T02:04:07.893Z,102227
2014-09-28T02:04:26.083Z,102227
2014-09-28T02:04:43.661Z,102224
2014-09-28T02:05:01.364Z,102222
2014-09-28T02:05:18.927Z,102224
2014-09-28T02:05:37.272Z,102227
2014-09-28T02:05:54.850Z,102225
2014-09-28T02:06:11.788Z,102227
2014-09-28T02:06:29.493Z,102224
2014-09-28T02:06:46.556Z,102227
2014-09-28T02:07:04.759Z,102227
2014-09-28T02:07:22.462Z,102219
2014-09-28T02:07:40.167Z,102216
2014-09-28T02:07:58.354Z,102222
2014-09-28T02:08:15.933Z,102233
2014-09-28T02:08:34.122Z,102216
2014-09-28T02:08:51.685Z,102219
2014-09-28T02:09:07.997Z,102222
2014-09-28T02:09:25.560Z,102224
2014-09-28T02:09:43.765Z,102216
2014-09-28T02:10:01.968Z,102222
2014-09-28T02:10:20.296Z,102222
2014-09-28T02:10:37.376Z,102222
2014-09-28T02:10:54.939Z,102222
2014-09-28T02:11:12.517Z,102222
2014-09-28T02:11:29.454Z,102216
2014-09-28T02:11:47.034Z,102216
2014-09-28T02:12:04.597Z,102224
2014-09-28T02:12:22.175Z,102216
2014-09-28T02:12:39.237Z,102227
2014-09-28T02:12:56.819Z,102216
2014-09-28T02:13:15.147Z,102216
2014-09-28T02:13:33.334Z,102222
2014-09-28T02:13:51.037Z,102222
2014-09-28T02:14:09.242Z,102213
2014-09-28T02:14:27.430Z,102224
2014-09-28T02:14:44.383Z,102222
2014-09-28T02:15:01.948Z,102219
2014-09-28T02:15:20.151Z,102213
2014-09-28T02:15:37.713Z,102222
2014-09-28T02:15:55.416Z,102224
2014-09-28T02:16:13.745Z,102221
2014-09-28T02:16:31.933Z,102222
2014-09-28T02:16:49.636Z,102224
2014-09-28T02:17:07.217Z,102216
2014-09-28T02:17:24.905Z,102216
2014-09-28T02:17:43.123Z,102222
2014-09-28T02:18:01.311Z,102216
2014-09-28T02:18:18.249Z,102216
2014-09-28T02:18:35.953Z,102213
2014-09-28T02:18:53.515Z,102219
2014-09-28T02:19:11.220Z,102207
2014-09-28T02:19:28.783Z,102216
2014-09-28T02:19:45.861Z,102204
2014-09-28T02:20:02.798Z,102219
2014-09-28T02:20:19.879Z,102216
2014-09-28T02:20:36.817Z,102210
2014-09-28T02:20:55.004Z,102224
2014-09-28T02:21:12.583Z,102210
2014-09-28T02:21:30.771Z,102213
2014-09-28T02:21:48.974Z,102210
2014-09-28T02:22:05.927Z,102216
2014-09-28T02:22:23.490Z,102207
2014-09-28T02:22:41.696Z,102213
2014-09-28T02:22:59.883Z,102216
2014-09-28T02:23:18.087Z,102219
2014-09-28T02:23:36.275Z,102216
2014-09-28T02:23:53.853Z,102213
2014-09-28T02:24:12.041Z,102213
2014-09-28T02:24:30.244Z,102207
2014-09-28T02:24:48.434Z,102216
2014-09-28T02:25:06.012Z,102219
2014-09-28T02:25:23.575Z,102213
2014-09-28T02:25:41.780Z,102210
2014-09-28T02:25:59.968Z,102216
2014-09-28T02:26:18.171Z,102210
2014-09-28T02:26:36.358Z,102210
2014-09-28T02:26:54.563Z,102222
2014-09-28T02:27:12.126Z,102216
2014-09-28T02:27:29.688Z,102219
2014-09-28T02:27:47.878Z,102216
2014-09-28T02:28:05.581Z,102219
2014-09-28T02:28:21.893Z,102219
2014-09-28T02:28:40.222Z,102222
2014-09-28T02:28:57.302Z,102216
2014-09-28T02:29:14.364Z,102224
2014-09-28T02:29:31.442Z,102210
2014-09-28T02:29:49.005Z,102216
2014-09-28T02:30:06.585Z,102219
2014-09-28T02:30:24.288Z,102216
2014-09-28T02:30:42.476Z,102210
2014-09-28T02:30:58.804Z,102219
2014-09-28T02:31:15.868Z,102219
2014-09-28T02:31:34.071Z,102216
2014-09-28T02:31:51.774Z,102221
2014-09-28T02:32:09.353Z,102219
2014-09-28T02:32:26.918Z,102213
2014-09-28T02:32:44.496Z,102210
2014-09-28T02:33:02.684Z,102210
2014-09-28T02:33:21.014Z,102204
2014-09-28T02:33:38.576Z,102204
2014-09-28T02:33:56.904Z,102204
2014-09-28T02:34:15.108Z,102210
2014-09-28T02:34:32.046Z,102213
2014-09-28T02:34:49.124Z,102213
2014-09-28T02:35:06.702Z,102210
2014-09-28T02:35:23.643Z,102207
2014-09-28T02:35:41.221Z,102204
2014-09-28T02:35:58.924Z,102213
2014-09-28T02:36:15.862Z,102204
2014-09-28T02:36:34.067Z,102213
2014-09-28T02:36:52.254Z,102207
2014-09-28T02:37:09.832Z,102213
2014-09-28T02:37:28.022Z,102210
2014-09-28T02:37:46.225Z,102204
2014-09-28T02:38:04.412Z,102204
2014-09-28T02:38:52.821Z,102201
2014-09-28T02:39:10.399Z,102210
2014-09-28T02:39:28.727Z,102193
2014-09-28T02:39:46.432Z,102204
2014-09-28T02:40:04.760Z,102207
2014-09-28T02:40:22.948Z,102207
2014-09-28T02:40:41.151Z,102204
2014-09-28T02:40:59.340Z,102207
2014-09-28T02:41:16.918Z,102210
2014-09-28T02:41:34.481Z,102216
2014-09-28T02:41:52.045Z,102196
2014-09-28T02:42:08.983Z,102210
2014-09-28T02:42:26.061Z,102210
2014-09-28T02:42:43.780Z,102201
2014-09-28T02:43:00.704Z,102198
2014-09-28T02:43:19.219Z,102213
2014-09-28T02:43:36.782Z,102210
2014-09-28T02:43:54.485Z,102207
2014-09-28T02:44:12.066Z,102210
2014-09-28T02:44:28.363Z,102201
2014-09-28T02:44:44.816Z,102210
2014-09-28T02:45:01.755Z,102216
2014-09-28T02:45:19.958Z,102207
2014-09-28T02:45:38.145Z,102198
2014-09-28T02:45:56.348Z,102196
2014-09-28T02:46:14.538Z,102201
2014-09-28T02:46:32.741Z,102196
2014-09-28T02:46:50.928Z,102210
2014-09-28T02:47:08.494Z,102198
2014-09-28T02:47:26.697Z,102216
2014-09-28T02:47:44.900Z,102207
2014-09-28T02:48:02.463Z,102204
2014-09-28T02:48:20.042Z,102193
2014-09-28T02:48:36.979Z,102198
2014-09-28T02:48:54.667Z,102204
2014-09-28T02:49:12.373Z,102204
2014-09-28T02:49:29.951Z,102219
2014-09-28T02:49:46.889Z,102204
2014-09-28T02:50:03.951Z,102207
2014-09-28T02:50:22.296Z,102201
2014-09-28T02:50:38.608Z,102213
2014-09-28T02:50:56.171Z,102216
2014-09-28T02:51:14.515Z,102201
2014-09-28T02:51:31.579Z,102201
2014-09-28T02:51:47.892Z,102201
2014-09-28T02:52:05.470Z,102207
2014-09-28T02:52:23.657Z,102207
2014-09-28T02:52:41.848Z,102196
2014-09-28T02:53:00.051Z,102198
2014-09-28T02:53:18.363Z,102210
2014-09-28T02:53:36.566Z,102213
2014-09-28T02:53:54.772Z,102204
2014-09-28T02:54:12.959Z,102198
2014-09-28T02:54:31.147Z,102207
2014-09-28T02:54:49.352Z,102207
2014-09-28T02:55:07.539Z,102201
2014-09-28T02:55:25.742Z,102210
2014-09-28T02:55:43.932Z,102188
2014-09-28T02:56:01.494Z,102193
2014-09-28T02:56:19.072Z,102207
2014-09-28T02:56:36.635Z,102213
2014-09-28T02:56:54.340Z,102193
2014-09-28T02:57:12.528Z,102207
2014-09-28T02:57:30.106Z,102204
2014-09-28T02:57:47.668Z,102198
2014-09-28T02:58:05.247Z,102204
2014-09-28T02:58:23.435Z,102207
2014-09-28T02:58:41.763Z,102198
2014-09-28T02:58:59.343Z,102204
2014-09-28T02:59:17.046Z,102201
2014-09-28T02:59:35.249Z,102210
2014-09-28T02:59:53.452Z,102193
2014-09-28T03:00:11.659Z,102199
2014-09-28T03:00:29.862Z,102204
2014-09-28T03:00:48.190Z,102201
2014-09-28T03:01:06.520Z,102207
2014-09-28T03:01:24.723Z,102204
2014-09-28T03:01:42.926Z,102196
2014-09-28T03:02:00.489Z,102204
2014-09-28T03:02:18.694Z,102204
2014-09-28T03:02:36.897Z,102199
2014-09-28T03:02:55.100Z,102204
2014-09-28T03:03:13.290Z,102193
2014-09-28T03:03:31.493Z,102196
2014-09-28T03:03:49.071Z,102193
2014-09-28T03:04:07.258Z,102199
2014-09-28T03:04:24.979Z,102196
2014-09-28T03:04:42.542Z,102198
2014-09-28T03:05:00.120Z,102204
2014-09-28T03:05:17.700Z,102196
2014-09-28T03:05:35.403Z,102198
2014-09-28T03:05:53.106Z,102199
2014-09-28T03:06:11.294Z,102193
2014-09-28T03:06:29.514Z,102196
2014-09-28T03:06:47.717Z,102193
2014-09-28T03:07:05.296Z,102199
2014-09-28T03:07:22.860Z,102199
2014-09-28T03:07:40.438Z,102207
2014-09-28T03:07:58.141Z,102204
2014-09-28T03:08:15.704Z,102201
2014-09-28T03:08:33.909Z,102204
2014-09-28T03:08:52.237Z,102201
2014-09-28T03:09:10.440Z,102204
2014-09-28T03:09:57.458Z,102188
2014-09-28T03:10:15.786Z,102191
2014-09-28T03:10:33.366Z,102199
2014-09-28T03:10:49.679Z,102193
2014-09-28T03:11:07.257Z,102202
2014-09-28T03:11:25.460Z,102193
2014-09-28T03:11:43.790Z,102199
2014-09-28T03:12:01.993Z,102199
2014-09-28T03:12:20.181Z,102199
2014-09-28T03:12:38.526Z,102196
2014-09-28T03:12:55.479Z,102188
2014-09-28T03:13:13.683Z,102196
2014-09-28T03:13:31.261Z,102185
2014-09-28T03:13:48.841Z,102204
2014-09-28T03:14:07.028Z,102201
2014-09-28T03:14:24.606Z,102201
2014-09-28T03:14:42.171Z,102188
2014-09-28T03:14:59.733Z,102191
2014-09-28T03:15:17.937Z,102193
2014-09-28T03:15:36.140Z,102188
2014-09-28T03:15:54.345Z,102199
2014-09-28T03:16:12.548Z,102191
2014-09-28T03:16:30.735Z,102191
2014-09-28T03:16:47.066Z,102193
2014-09-28T03:17:05.253Z,102191
2014-09-28T03:17:23.456Z,102196
2014-09-28T03:17:41.159Z,102199
2014-09-28T03:17:59.349Z,102199
2014-09-28T03:18:17.568Z,102199
2014-09-28T03:18:35.271Z,102191
2014-09-28T03:18:52.335Z,102185
2014-09-28T03:19:10.538Z,102188
2014-09-28T03:19:26.991Z,102188
2014-09-28T03:19:44.554Z,102202
2014-09-28T03:20:01.509Z,102191
2014-09-28T03:20:18.447Z,102202
2014-09-28T03:20:36.025Z,102199
2014-09-28T03:20:54.353Z,102193
2014-09-28T03:21:12.058Z,102193
2014-09-28T03:21:30.261Z,102191
2014-09-28T03:21:48.589Z,102196
2014-09-28T03:22:06.169Z,102202
2014-09-28T03:22:24.372Z,102199
2014-09-28T03:22:41.951Z,102193
2014-09-28T03:22:59.529Z,102196
2014-09-28T03:23:17.859Z,102191
2014-09-28T03:23:36.062Z,102191
2014-09-28T03:23:54.281Z,102191
2014-09-28T03:24:11.987Z,102180
2014-09-28T03:24:30.190Z,102196
2014-09-28T03:24:48.393Z,102191
2014-09-28T03:25:06.596Z,102193
2014-09-28T03:25:23.550Z,102191
2014-09-28T03:25:41.113Z,102186
2014-09-28T03:25:59.316Z,102188
2014-09-28T03:26:16.896Z,102186
2014-09-28T03:26:35.099Z,102208
2014-09-28T03:26:53.443Z,102196
2014-09-28T03:27:11.646Z,102193
2014-09-28T03:27:29.836Z,102189
2014-09-28T03:27:48.054Z,102183
2014-09-28T03:28:06.242Z,102186
2014-09-28T03:28:23.823Z,102186
2014-09-28T03:28:41.401Z,102186
2014-09-28T03:28:58.964Z,102189
2014-09-28T03:29:16.682Z,102186
2014-09-28T03:29:33.622Z,102183
2014-09-28T03:29:51.825Z,102186
2014-09-28T03:30:09.403Z,102186
2014-09-28T03:30:26.981Z,102180
2014-09-28T03:30:44.685Z,102183
2014-09-28T03:31:02.888Z,102183
2014-09-28T03:31:20.592Z,102174
2014-09-28T03:31:38.798Z,102180
2014-09-28T03:31:56.376Z,102183
2014-09-28T03:32:14.579Z,102177
2014-09-28T03:32:32.157Z,102177
2014-09-28T03:32:49.736Z,102177
2014-09-28T03:33:07.939Z,102180
2014-09-28T03:33:26.142Z,102186
2014-09-28T03:33:43.224Z,102186
2014-09-28T03:34:00.177Z,102177
2014-09-28T03:34:17.739Z,102180
2014-09-28T03:34:35.302Z,102180
2014-09-28T03:34:52.897Z,102177
2014-09-28T03:35:11.085Z,102177
2014-09-28T03:35:29.288Z,102180
2014-09-28T03:35:47.507Z,102174
2014-09-28T03:36:05.711Z,102174
2014-09-28T03:36:23.914Z,102183
2014-09-28T03:36:41.617Z,102180
2014-09-28T03:36:59.198Z,102183
2014-09-28T03:37:16.901Z,102180
2014-09-28T03:37:35.245Z,102183
2014-09-28T03:37:53.448Z,102177
2014-09-28T03:38:11.028Z,102180
2014-09-28T03:38:29.216Z,102183
2014-09-28T03:38:47.435Z,102180
2014-09-28T03:39:04.624Z,102177
2014-09-28T03:39:22.827Z,102180
2014-09-28T03:39:41.030Z,102180
2014-09-28T03:39:58.734Z,102183
2014-09-28T03:40:16.954Z,102180
2014-09-28T03:40:35.282Z,102177
2014-09-28T03:40:53.486Z,102168
2014-09-28T03:41:11.066Z,102177
2014-09-28T03:41:29.284Z,102183
2014-09-28T03:41:46.222Z,102174
2014-09-28T03:42:03.800Z,102177
2014-09-28T03:42:21.365Z,102171
2014-09-28T03:42:38.943Z,102171
2014-09-28T03:42:57.146Z,102171
2014-09-28T03:43:14.726Z,102174